ETSL

Details ICAO ETSL
Name LECHFELD
Region Germany - Military
Timezone Europe/Berlin (UTC+2.0)
Plans Departing 2
Arriving 1
Stats Elevation 1,822 ft / 555 m (AMSL)
Location 48.185499° 10.861168°
Runways 1
Magnetic Variation 2.901° E
Sunrise 2017-09-21 05:03:04 UTC / 2017-09-21 07:03:04 Local
Sunset 2017-09-21 17:18:52 UTC / 2017-09-21 19:18:52 Local
Advertisement - Login to hide

Runways

ID Width Length Bearing (true) Bearing (mag) Surface Threshold Offset Overrun Length
03 98 ft / 30 m 8,008 ft / 2,441 m 28.92° 26.02° Concrete 0 ft / 0 m 961 ft / 293 m
21 98 ft / 30 m 8,008 ft / 2,441 m 208.93° 206.03° Concrete 0 ft / 0 m 945 ft / 288 m

Map

Weather


0- 5 10 15 20 25 30 35+ Temperature / ° C

Clouds and Precipitation
Forecast for 2017-09-21 18:00 UTC. Updated 40 minutes ago

Ground ~20,000 ft ~40,000 ft Winds

METAR

ETSL 211320Z 05007KT 9999 FEW030 15/06 Q1021 BLU+BLU+

TAF

Not found

Frequencies

Tower 122.10 MHz TWR
Approach 123.30 MHz RADAR
Tower 135.15 MHz TWR
Approach 129.02 MHz RADAR
Warning: Do not use this data for real-world aviation or navigation. No guarantee of current accuracy is given.